My Meet Scores
Madison Doty, Flipstar Gymnastics Academy - MyMeetScores.com
Top100 | Top Teams | Upcoming Meets | Completed Meets | Latest | Add Scores | Help| Support | Bookmark and Share

Madison Doty, Flipstar Gymnastics Academy
Personal Bests
LevelVault BarsBeamFloorAA
39.5759.175 9.1509.05036.800
49.7009.625 9.5509.50037.975
69.1009.375 9.2509.55037.075
Scores on America's Top 100as of 11.17.2019
Year Level Vault Bars Beam Floor AA
2017 49.700

Click here to view our
exclusive Top 100 Collection
Meet Scores
Date Meet Team Session Level Division Vault Bars Beam Floor AA
2019-03-15 Illinois State Championship Level 6,9,10 Flipstar Gymnastics Academy 12 6 Jr E 9.100 10 9.300 8 9.250 12 9.425 11T 37.075 7
2019-03-01 2019 MEGA Spring Invite Flipstar Gymnastics Academy All 6 All Ages 9.000 19T 9.375 8 8.600 45 9.300 18T 36.275 26
2019-02-23 Kinetic Classic 2019 Flipstar Gymnastics Academy 1 6 Younger 8.800 11T 9.050 7 9.225 9 9.550 3 36.625 6
2019-02-08 Midwest Twisters Harley Meet Womens Flipstar Gymnastics Academy O09 6 11 yrs. 8.700 6 9.250 1 8.775 7 9.275 9 36.000 5
2019-01-11 Circle of Stars Gymnastics Flipstar Gymnastics Academy B09 6 Junior B 8.750 36T 9.050 23T 8.800 40T 8.600 54T 35.200 34T
2018-12-07 Horton Invite Flipstar Gymnastics Academy All 6 Ch 8.650 5T 7.525 16 8.700 12 9.050 12 33.925 16
2018-03-08 Level 4 & 5 State Flipstar Gymnastics Academy All 4 Yh F 9.500 3 9.400 2 9.550 4 9.500 1T 37.950 1
2018-02-23 Kinetic Classic Flipstar Gymnastics Academy 7 4 Middle 9.250 1 9.325 4T 9.400 11T 9.375 7T 37.350 3
2018-02-16 Big Classic Flipstar Gymnastics Academy 7B 4 Child C 9.550 2 9.500 4 9.500 4 9.425 4 37.975 3
2018-02-09 IGI Chicago Style Gymnastics Meet Flipstar Gymnastics Academy 2 4 211 Lake Shore Dr L4 C 9.150 2 9.050 8 9.125 8 9.250 6 36.575 5
2018-01-19 Sand Dollar/ Whitlow Invitational Flipstar Gymnastics Academy E06 4 Jr B 9.375 3 8.875 6 8.875 10 8.575 12 35.700 7
2017-12-08 Horton Invite At IWU Shirk Center Flipstar Gymnastics Academy All 4 Jr A 9.700 1 9.300 2T 9.150 10T 9.250 6T 37.400 3
2017-11-17 SCGA Classic Flipstar Gymnastics Academy 2 4 JrB 9.500 1 9.300 1 9.000 6 9.275 3 37.075 3
2017-11-10 Illinois NAWGJ Judges Cup 2017 Flipstar Gymnastics Academy G3 4 All Ages 9.250 3 9.625 2T 8.575 36 9.150 4T 36.600 5
2017-02-24 Kinetic Classic Flipstar Gymnastics Academy 5,6 4 All Ages 9.400 4T 9.050 52T 9.225 44T 8.750 80T 36.425 31T
2017-02-17 Big Classic Flipstar Gymnastics Academy B 4 Child B 8.550 24T 9.100 17T 9.150 14T 8.650 29 35.450 21
2017-02-10 IGI Chicago Style Gymnastics Meet Flipstar Gymnastics Academy 633L 4 JrA 9.275 2 8.750 10 9.225 13 8.900 17 36.150 11
2016-12-09 Horton Invitational Flipstar Gymnastics Academy 2 4 JrB 8.800 6 9.125 3 8.250 16 8.500 15 34.675 9
2016-11-11 2016 Illinois Judges Cup Flipstar Gymnastics Academy R4 4 8 and Unde 9.050 1 8.025 10 8.600 9 8.500 11 34.175 9
2016-03-04 2016 Illinois Level 3 State Championships Flipstar Gymnastics Academy 3 Youth-A 9.575 7 8.400 23 8.450 12 9.050 14 35.475 16
2016-01-22 King Arthur Invitational Flipstar Gymnastics Academy S13 3 Jr.A 9.450 1 9.175 4 9.150 4 9.025 2 36.800 2
Get your scores on
a t-shirt, pin, or hoodie

www.lazysuits.com